createdAt,value
2023-05-10T00:00:21.470Z,16.16
2023-05-10T00:02:49.575Z,16.12
2023-05-10T00:05:17.647Z,16.09
2023-05-10T00:07:45.891Z,16.07
2023-05-10T00:10:14.143Z,16.05
2023-05-10T00:12:42.538Z,16.05
2023-05-10T00:15:11.425Z,16.06
2023-05-10T00:17:41.571Z,16.06
2023-05-10T00:20:10.550Z,16.04
2023-05-10T00:22:38.631Z,15.96
2023-05-10T00:25:08.028Z,15.98
2023-05-10T00:27:36.047Z,16.04
2023-05-10T00:30:04.238Z,16.10
2023-05-10T00:32:32.312Z,16.17
2023-05-10T00:35:01.993Z,16.15
2023-05-10T00:37:30.056Z,16.14
2023-05-10T00:39:58.101Z,16.15
2023-05-10T00:42:26.166Z,16.13
2023-05-10T00:44:54.283Z,16.16
2023-05-10T00:47:23.031Z,16.17
2023-05-10T00:49:51.175Z,16.19
2023-05-10T00:52:20.806Z,16.20
2023-05-10T00:54:49.923Z,16.24
2023-05-10T00:57:17.985Z,16.24
2023-05-10T00:59:46.094Z,16.22
2023-05-10T01:02:14.349Z,16.19
2023-05-10T01:04:42.912Z,16.21
2023-05-10T01:07:11.634Z,16.16
2023-05-10T01:09:41.315Z,16.17
2023-05-10T01:12:09.700Z,16.21
2023-05-10T01:14:38.433Z,16.23
2023-05-10T01:17:08.419Z,16.20
2023-05-10T01:19:38.789Z,16.12
2023-05-10T01:22:20.984Z,15.94
2023-05-10T01:25:13.708Z,15.71
2023-05-10T01:28:12.379Z,15.48
2023-05-10T01:31:25.325Z,15.24
2023-05-10T01:34:00.156Z,15.16
2023-05-10T01:36:32.934Z,15.09
2023-05-10T01:39:07.610Z,15.02
2023-05-10T01:41:45.380Z,14.99
2023-05-10T01:44:20.529Z,15.02
2023-05-10T01:46:54.423Z,15.04
2023-05-10T01:49:28.627Z,15.05
2023-05-10T01:52:01.976Z,15.06
2023-05-10T01:54:31.238Z,15.11
2023-05-10T01:57:05.253Z,15.16
2023-05-10T01:59:40.302Z,15.21
2023-05-10T02:02:09.304Z,15.26
2023-05-10T02:04:41.200Z,15.32
2023-05-10T02:07:10.956Z,15.38
2023-05-10T02:09:40.411Z,15.43
2023-05-10T02:12:09.838Z,15.48
2023-05-10T02:14:39.482Z,15.51
2023-05-10T02:17:09.982Z,15.47
2023-05-10T02:19:42.828Z,15.40
2023-05-10T02:22:11.966Z,15.35
2023-05-10T02:24:41.883Z,15.32
2023-05-10T02:27:12.017Z,15.27
2023-05-10T02:29:40.962Z,15.25
2023-05-10T02:32:10.889Z,15.24
2023-05-10T02:34:41.740Z,15.27
2023-05-10T02:37:10.809Z,15.28
2023-05-10T02:39:41.688Z,15.28
2023-05-10T02:42:10.582Z,15.32
2023-05-10T02:44:39.686Z,15.31
2023-05-10T02:47:07.719Z,15.24
2023-05-10T02:49:36.246Z,15.24
2023-05-10T02:52:10.133Z,15.25
2023-05-10T02:54:46.611Z,15.29
2023-05-10T02:57:20.428Z,15.37
2023-05-10T02:59:48.496Z,15.44
2023-05-10T03:02:16.744Z,15.48
2023-05-10T03:04:44.877Z,15.48
2023-05-10T03:07:14.488Z,15.44
2023-05-10T03:09:42.684Z,15.43
2023-05-10T03:12:17.887Z,15.36
2023-05-10T03:14:55.534Z,15.26
2023-05-10T03:17:31.353Z,15.25
2023-05-10T03:20:05.504Z,15.25
2023-05-10T03:22:39.724Z,15.24
2023-05-10T03:25:10.488Z,15.15
2023-05-10T03:27:41.268Z,15.12
2023-05-10T03:30:12.787Z,15.04
2023-05-10T03:32:41.258Z,14.97
2023-05-10T03:35:10.402Z,14.95
2023-05-10T03:37:40.082Z,14.94
2023-05-10T03:40:09.240Z,14.93
2023-05-10T03:42:37.362Z,14.90
2023-05-10T03:45:05.912Z,14.87
2023-05-10T03:47:34.100Z,14.81
2023-05-10T03:50:02.844Z,14.78
2023-05-10T03:52:30.961Z,14.71
2023-05-10T03:55:00.392Z,14.65
2023-05-10T03:57:28.432Z,14.58
2023-05-10T03:59:56.488Z,14.53
2023-05-10T04:02:24.790Z,14.48
2023-05-10T04:04:53.033Z,14.44
2023-05-10T04:07:21.149Z,14.43
2023-05-10T04:09:49.390Z,14.42
2023-05-10T04:12:18.919Z,14.36
2023-05-10T04:14:46.990Z,14.38
2023-05-10T04:17:15.303Z,14.40
2023-05-10T04:19:43.485Z,14.45
2023-05-10T04:22:11.824Z,14.49
2023-05-10T04:24:39.833Z,14.50
2023-05-10T04:27:07.851Z,14.49
2023-05-10T04:29:37.254Z,14.52
2023-05-10T04:32:05.832Z,14.53
2023-05-10T04:34:35.187Z,14.54
2023-05-10T04:37:03.289Z,14.59
2023-05-10T04:39:31.431Z,14.62
2023-05-10T04:41:59.444Z,14.72
2023-05-10T04:44:27.502Z,14.79
2023-05-10T04:46:57.078Z,14.84
2023-05-10T04:49:25.116Z,14.89
2023-05-10T04:51:53.366Z,14.95
2023-05-10T04:54:21.453Z,14.98
2023-05-10T04:56:49.613Z,14.94
2023-05-10T04:59:17.727Z,14.91
2023-05-10T05:01:45.865Z,14.85
2023-05-10T05:04:15.744Z,14.75
2023-05-10T05:06:43.836Z,14.63
2023-05-10T05:09:12.311Z,14.52
2023-05-10T05:11:41.435Z,14.53
2023-05-10T05:14:09.529Z,14.61
2023-05-10T05:16:37.651Z,14.69
2023-05-10T05:19:05.729Z,14.78
2023-05-10T05:21:35.285Z,14.86
2023-05-10T05:24:03.331Z,14.93
2023-05-10T05:26:31.449Z,15.03
2023-05-10T05:28:59.487Z,15.09
2023-05-10T05:31:27.480Z,15.15
2023-05-10T05:33:55.584Z,15.12
2023-05-10T05:36:23.860Z,15.02
2023-05-10T05:38:53.314Z,14.90
2023-05-10T05:41:22.624Z,14.87
2023-05-10T05:43:50.752Z,14.91
2023-05-10T05:46:18.902Z,15.01
2023-05-10T05:48:47.125Z,15.07
2023-05-10T05:51:15.165Z,15.17
2023-05-10T05:53:43.214Z,15.27
2023-05-10T05:56:12.702Z,15.40
2023-05-10T05:58:40.900Z,15.48
2023-05-10T06:01:09.530Z,15.53
2023-05-10T06:03:37.590Z,15.57
2023-05-10T06:06:06.277Z,15.67
2023-05-10T06:08:35.060Z,15.64
2023-05-10T06:11:05.258Z,15.57
2023-05-10T06:13:36.359Z,15.63
2023-05-10T06:16:05.132Z,15.77
2023-05-10T06:18:33.117Z,15.89
2023-05-10T06:21:01.095Z,16.01
2023-05-10T06:23:29.840Z,16.09
2023-05-10T06:25:57.823Z,15.95
2023-05-10T06:28:26.011Z,16.01
2023-05-10T06:30:55.412Z,16.02
2023-05-10T06:33:23.453Z,16.06
2023-05-10T06:35:51.511Z,16.09
2023-05-10T06:38:19.579Z,16.15
2023-05-10T06:40:47.597Z,16.21
2023-05-10T06:43:16.525Z,16.21
2023-05-10T06:45:44.569Z,16.21
2023-05-10T06:48:14.112Z,16.26
2023-05-10T06:50:42.206Z,16.38
2023-05-10T06:53:10.379Z,16.62
2023-05-10T06:55:38.404Z,16.67
2023-05-10T06:58:07.197Z,16.76
2023-05-10T07:00:35.437Z,16.85
2023-05-10T07:03:03.569Z,16.94
2023-05-10T07:05:33.099Z,17.03
2023-05-10T07:08:01.291Z,17.08
2023-05-10T07:10:29.533Z,17.16
2023-05-10T07:12:57.741Z,17.23
2023-05-10T07:15:25.799Z,17.36
2023-05-10T07:17:53.963Z,17.37
2023-05-10T07:20:22.063Z,17.38
2023-05-10T07:22:51.543Z,17.44
2023-05-10T07:25:19.738Z,17.55
2023-05-10T07:27:49.512Z,17.59
2023-05-10T07:30:17.643Z,17.68
2023-05-10T07:32:46.113Z,17.78
2023-05-10T07:35:14.392Z,17.90
2023-05-10T07:37:42.613Z,18.12
2023-05-10T07:40:12.993Z,18.49
2023-05-10T07:42:41.313Z,18.89
2023-05-10T07:45:11.364Z,19.31
2023-05-10T07:47:39.502Z,20.27
2023-05-10T07:50:09.357Z,22.08
2023-05-10T07:52:37.492Z,24.63
2023-05-10T07:55:06.456Z,27.49
2023-05-10T07:57:35.894Z,29.70
2023-05-10T08:00:04.140Z,31.26
2023-05-10T08:02:32.265Z,31.75
2023-05-10T08:05:00.337Z,31.56
2023-05-10T08:07:28.458Z,30.45
2023-05-10T08:09:57.305Z,29.28
2023-05-10T08:12:25.337Z,28.49
2023-05-10T08:14:54.783Z,29.40
2023-05-10T08:17:24.187Z,30.73
2023-05-10T08:19:52.842Z,31.77
2023-05-10T08:22:21.022Z,33.22
2023-05-10T08:24:49.069Z,34.00
2023-05-10T08:27:17.103Z,34.74
2023-05-10T08:29:50.147Z,34.60
2023-05-10T08:32:20.368Z,33.46
2023-05-10T08:34:48.399Z,31.81
2023-05-10T08:37:16.669Z,29.87
2023-05-10T08:39:44.716Z,28.10
2023-05-10T08:42:14.725Z,26.58
2023-05-10T08:44:43.427Z,25.32
2023-05-10T08:47:12.586Z,24.24
2023-05-10T08:49:43.863Z,23.40
2023-05-10T08:52:15.362Z,22.84
2023-05-10T08:54:43.979Z,22.63
2023-05-10T08:57:12.834Z,22.68
2023-05-10T08:59:41.167Z,23.18
2023-05-10T09:02:12.259Z,25.28
2023-05-10T09:04:42.151Z,27.93
2023-05-10T09:07:10.300Z,30.97
2023-05-10T09:09:39.262Z,33.56
2023-05-10T09:12:08.245Z,34.59
2023-05-10T09:14:37.914Z,34.54
2023-05-10T09:17:07.261Z,34.62
2023-05-10T09:19:35.387Z,34.60
2023-05-10T09:22:04.862Z,33.78
2023-05-10T09:24:33.115Z,32.55
2023-05-10T09:27:01.104Z,31.44
2023-05-10T09:29:40.894Z,30.46
2023-05-10T09:32:08.949Z,29.90
2023-05-10T09:34:41.047Z,29.89
2023-05-10T09:37:10.696Z,30.39
2023-05-10T09:39:40.003Z,31.81
2023-05-10T09:42:09.764Z,34.16
2023-05-10T09:44:39.090Z,36.72
2023-05-10T09:47:07.180Z,38.68
2023-05-10T09:49:35.302Z,40.33
2023-05-10T09:52:04.961Z,41.42
2023-05-10T09:54:35.238Z,41.97
2023-05-10T09:57:03.473Z,41.99
2023-05-10T09:59:32.234Z,41.48
2023-05-10T10:02:02.343Z,40.27
2023-05-10T10:04:31.022Z,39.28
2023-05-10T10:07:04.610Z,36.84
2023-05-10T10:09:35.367Z,33.97
2023-05-10T10:12:04.776Z,32.05
2023-05-10T10:14:33.094Z,31.03
2023-05-10T10:19:36.449Z,29.46
2023-05-10T10:22:05.239Z,28.68
2023-05-10T10:24:34.895Z,27.82
2023-05-10T10:27:11.432Z,27.13
2023-05-10T10:29:46.917Z,26.57
2023-05-10T10:32:28.161Z,25.96
2023-05-10T10:34:57.926Z,25.43
2023-05-10T10:37:43.382Z,25.03
2023-05-10T10:40:34.633Z,24.70
2023-05-10T10:43:25.098Z,24.48
2023-05-10T10:46:13.692Z,24.26
2023-05-10T10:48:42.218Z,24.18
2023-05-10T10:51:12.697Z,24.24
2023-05-10T10:53:42.134Z,24.11
2023-05-10T10:56:14.560Z,23.89
2023-05-10T10:58:43.312Z,23.69
2023-05-10T11:01:13.282Z,23.51
2023-05-10T11:03:41.441Z,23.34
2023-05-10T11:06:10.189Z,23.19
2023-05-10T11:08:45.564Z,23.18
2023-05-10T11:11:17.107Z,23.18
2023-05-10T11:13:49.202Z,23.16
2023-05-10T11:16:21.166Z,23.06
2023-05-10T11:18:59.584Z,23.00
2023-05-10T11:21:27.806Z,22.93
2023-05-10T11:23:58.467Z,22.82
2023-05-10T11:26:32.348Z,22.78
2023-05-10T11:29:01.908Z,22.70
2023-05-10T11:31:31.093Z,22.66
2023-05-10T11:34:02.776Z,22.73
2023-05-10T11:36:32.184Z,22.77
2023-05-10T11:39:00.490Z,22.79
2023-05-10T11:41:31.729Z,22.78
2023-05-10T11:44:01.127Z,22.81
2023-05-10T11:46:30.546Z,22.89
2023-05-10T11:49:02.823Z,22.92
2023-05-10T11:51:31.285Z,22.97
2023-05-10T11:53:59.603Z,22.97
2023-05-10T11:56:29.067Z,23.05
2023-05-10T11:58:58.318Z,23.07
2023-05-10T12:01:27.556Z,23.05
2023-05-10T12:04:00.016Z,23.00
2023-05-10T12:06:29.635Z,22.99
2023-05-10T12:08:57.766Z,22.93
2023-05-10T12:11:28.319Z,22.81
2023-05-10T12:13:58.491Z,22.82
2023-05-10T12:16:28.132Z,22.92
2023-05-10T12:18:58.307Z,22.97
2023-05-10T12:21:27.274Z,23.02
2023-05-10T12:23:56.636Z,23.00
2023-05-10T12:26:25.670Z,23.00
2023-05-10T12:28:53.789Z,22.93
2023-05-10T12:31:23.517Z,22.95
2023-05-10T12:33:51.620Z,23.02
2023-05-10T12:36:26.411Z,23.11
2023-05-10T12:39:05.959Z,23.22
2023-05-10T12:41:33.962Z,23.38
2023-05-10T12:44:01.992Z,23.51
2023-05-10T12:46:32.294Z,23.58
2023-05-10T12:49:08.523Z,23.65
2023-05-10T12:51:37.392Z,23.58
2023-05-10T12:54:06.034Z,23.50
2023-05-10T12:56:34.125Z,23.51
2023-05-10T12:59:02.187Z,23.60
2023-05-10T13:01:31.794Z,23.70
2023-05-10T13:04:01.194Z,23.78
2023-05-10T13:06:29.382Z,23.78
2023-05-10T13:08:58.610Z,23.78
2023-05-10T13:11:26.736Z,23.75
2023-05-10T13:13:54.761Z,23.77
2023-05-10T13:16:22.870Z,23.74
2023-05-10T13:18:52.494Z,23.70
2023-05-10T13:21:20.567Z,23.68
2023-05-10T13:23:48.730Z,23.63
2023-05-10T13:26:16.791Z,23.64
2023-05-10T13:28:47.132Z,23.58
2023-05-10T13:31:15.247Z,23.57
2023-05-10T13:33:43.361Z,23.64
2023-05-10T13:36:12.820Z,23.61
2023-05-10T13:38:40.917Z,23.53
2023-05-10T13:41:09.147Z,23.28
2023-05-10T13:43:37.313Z,23.10
2023-05-10T13:46:05.756Z,22.98
2023-05-10T13:48:34.099Z,23.06
2023-05-10T13:51:02.692Z,23.12
2023-05-10T13:53:32.155Z,23.19
2023-05-10T13:56:00.248Z,23.28
2023-05-10T13:58:28.316Z,23.29
2023-05-10T14:00:56.383Z,23.29
2023-05-10T14:03:24.481Z,23.28
2023-05-10T14:05:52.597Z,23.24
2023-05-10T14:08:21.250Z,23.15
2023-05-10T14:10:51.762Z,23.12
2023-05-10T14:13:19.861Z,23.09
2023-05-10T14:15:47.906Z,22.94
2023-05-10T14:18:15.963Z,22.80
2023-05-10T14:20:44.011Z,22.71
2023-05-10T14:23:12.355Z,22.66
2023-05-10T14:25:42.742Z,22.56
2023-05-10T14:28:12.857Z,22.52
2023-05-10T14:30:40.974Z,22.49
2023-05-10T14:33:09.474Z,22.40
2023-05-10T14:35:37.636Z,22.41
2023-05-10T14:38:06.442Z,22.43
2023-05-10T14:40:34.589Z,22.42
2023-05-10T14:43:02.909Z,22.49
2023-05-10T14:45:32.664Z,22.63
2023-05-10T14:48:00.928Z,22.72
2023-05-10T14:53:00.162Z,22.63
2023-05-10T14:55:28.367Z,22.59
2023-05-10T14:57:56.379Z,22.63
2023-05-10T15:00:24.637Z,22.73
2023-05-10T15:02:54.585Z,22.83
2023-05-10T15:05:23.214Z,22.97
2023-05-10T15:07:51.644Z,23.04
2023-05-10T15:10:20.615Z,23.15
2023-05-10T15:12:48.643Z,23.25
2023-05-10T15:15:16.958Z,23.27
2023-05-10T15:17:45.204Z,23.10
2023-05-10T15:20:15.081Z,22.84
2023-05-10T15:22:43.240Z,22.60
2023-05-10T15:25:11.713Z,22.40
2023-05-10T15:27:39.723Z,22.17
2023-05-10T15:30:09.341Z,21.97
2023-05-10T15:32:38.161Z,21.73
2023-05-10T15:35:07.164Z,21.56
2023-05-10T15:37:36.703Z,21.50
2023-05-10T15:40:05.221Z,21.51
2023-05-10T15:42:33.509Z,21.53
2023-05-10T15:45:01.696Z,21.52
2023-05-10T15:47:32.881Z,21.51
2023-05-10T15:50:01.193Z,21.58
2023-05-10T15:52:29.416Z,21.64
2023-05-10T15:54:58.968Z,21.76
2023-05-10T15:57:26.957Z,21.89
2023-05-10T15:59:55.036Z,22.00
2023-05-10T16:02:23.665Z,22.12
2023-05-10T16:04:51.889Z,22.27
2023-05-10T16:07:20.027Z,22.34
2023-05-10T16:09:49.475Z,22.40
2023-05-10T16:12:19.090Z,22.46
2023-05-10T16:14:47.973Z,22.42
2023-05-10T16:17:16.464Z,22.33
2023-05-10T16:19:44.680Z,22.24
2023-05-10T16:22:12.815Z,22.15
2023-05-10T16:24:40.966Z,21.94
2023-05-10T16:27:09.160Z,21.62
2023-05-10T16:29:38.712Z,21.17
2023-05-10T16:32:07.173Z,20.91
2023-05-10T16:34:35.252Z,20.70
2023-05-10T16:37:03.380Z,20.53
2023-05-10T16:39:31.584Z,20.46
2023-05-10T16:41:59.638Z,20.33
2023-05-10T16:44:27.701Z,20.16
2023-05-10T16:46:57.169Z,20.01
2023-05-10T16:49:26.516Z,19.86
2023-05-10T16:51:54.560Z,19.77
2023-05-10T16:54:22.924Z,19.66
2023-05-10T16:56:51.083Z,19.60
2023-05-10T16:59:19.161Z,19.55
2023-05-10T17:01:47.401Z,19.44
2023-05-10T17:04:17.867Z,19.32
2023-05-10T17:06:45.933Z,19.22
2023-05-10T17:09:14.083Z,19.10
2023-05-10T17:11:44.212Z,18.99
2023-05-10T17:14:12.470Z,18.87
2023-05-10T17:16:40.617Z,18.76
2023-05-10T17:19:09.589Z,18.66
2023-05-10T17:21:39.225Z,18.61
2023-05-10T17:24:07.640Z,18.61
2023-05-10T17:26:35.965Z,18.60
2023-05-10T17:29:04.651Z,18.58
2023-05-10T17:31:33.567Z,18.55
2023-05-10T17:34:04.728Z,18.53
2023-05-10T17:36:33.700Z,18.53
2023-05-10T17:39:03.350Z,18.51
2023-05-10T17:41:31.391Z,18.49
2023-05-10T17:43:59.593Z,18.44
2023-05-10T17:46:27.964Z,18.43
2023-05-10T17:48:56.080Z,18.39
2023-05-10T17:51:24.240Z,18.32
2023-05-10T17:53:52.835Z,18.25
2023-05-10T17:56:23.386Z,18.15
2023-05-10T17:58:51.528Z,18.05
2023-05-10T18:01:19.793Z,17.99
2023-05-10T18:03:51.971Z,17.91
2023-05-10T18:06:20.006Z,17.82
2023-05-10T18:08:48.141Z,17.76
2023-05-10T18:11:16.843Z,17.67
2023-05-10T18:13:46.388Z,17.59
2023-05-10T18:16:14.610Z,17.51
2023-05-10T18:18:43.003Z,17.41
2023-05-10T18:21:11.278Z,17.30
2023-05-10T18:23:39.476Z,17.22
2023-05-10T18:26:09.267Z,17.06
2023-05-10T18:28:37.821Z,16.99
2023-05-10T18:31:07.445Z,16.87
2023-05-10T18:33:35.521Z,16.80
2023-05-10T18:36:04.331Z,16.70
2023-05-10T18:38:32.596Z,16.58
2023-05-10T18:41:00.822Z,16.49
2023-05-10T18:43:29.173Z,16.46
2023-05-10T18:45:57.400Z,16.47
2023-05-10T18:48:26.982Z,16.48
2023-05-10T18:50:55.098Z,16.47
2023-05-10T18:53:23.418Z,16.48
2023-05-10T18:55:57.052Z,16.45
2023-05-10T18:58:25.753Z,16.40
2023-05-10T19:00:54.147Z,16.32
2023-05-10T19:03:22.697Z,16.26
2023-05-10T19:05:52.195Z,16.20
2023-05-10T19:08:20.371Z,16.13
2023-05-10T19:10:48.480Z,16.05
2023-05-10T19:13:16.595Z,16.04
2023-05-10T19:15:45.960Z,16.00
2023-05-10T19:18:15.351Z,15.91
2023-05-10T19:20:43.411Z,15.86
2023-05-10T19:23:12.919Z,15.82
2023-05-10T19:25:42.418Z,15.78
2023-05-10T19:28:11.312Z,15.79
2023-05-10T19:30:39.662Z,15.77
2023-05-10T19:33:09.336Z,15.74
2023-05-10T19:35:39.026Z,15.70
2023-05-10T19:38:07.228Z,15.66
2023-05-10T19:40:36.747Z,15.68
2023-05-10T19:43:04.940Z,15.68
2023-05-10T19:45:33.986Z,15.70
2023-05-10T19:48:02.630Z,15.71
2023-05-10T19:50:30.857Z,15.70
2023-05-10T19:53:00.623Z,15.69
2023-05-10T19:55:30.034Z,15.70
2023-05-10T19:58:01.539Z,15.70
2023-05-10T20:00:29.816Z,15.67
2023-05-10T20:02:57.964Z,15.73
2023-05-10T20:05:26.308Z,15.73
2023-05-10T20:07:54.738Z,15.76
2023-05-10T20:10:25.164Z,15.78
2023-05-10T20:12:54.705Z,15.76
2023-05-10T20:15:24.892Z,15.73
2023-05-10T20:17:53.981Z,15.71
2023-05-10T20:20:22.926Z,15.69
2023-05-10T20:22:51.418Z,15.68
2023-05-10T20:25:20.329Z,15.67
2023-05-10T20:27:50.970Z,15.62
2023-05-10T20:30:19.797Z,15.64
2023-05-10T20:32:49.731Z,15.63
2023-05-10T20:35:18.154Z,15.62
2023-05-10T20:37:48.428Z,15.61
2023-05-10T20:40:16.743Z,15.60
2023-05-10T20:42:45.119Z,15.60
2023-05-10T20:45:13.593Z,15.61
2023-05-10T20:47:42.127Z,15.61
2023-05-10T20:50:13.514Z,15.59
2023-05-10T20:52:41.605Z,15.58
2023-05-10T20:55:10.601Z,15.55
2023-05-10T20:57:38.688Z,15.54
2023-05-10T21:00:08.329Z,15.52
2023-05-10T21:02:36.438Z,15.45
2023-05-10T21:05:05.332Z,15.45
2023-05-10T21:07:34.882Z,15.36
2023-05-10T21:10:03.276Z,15.41
2023-05-10T21:12:31.497Z,15.41
2023-05-10T21:14:59.668Z,15.37
2023-05-10T21:17:27.861Z,15.35
2023-05-10T21:19:56.017Z,15.33
2023-05-10T21:22:24.063Z,15.32
2023-05-10T21:24:53.505Z,15.28
2023-05-10T21:27:21.694Z,15.22
2023-05-10T21:29:49.918Z,15.14
2023-05-10T21:32:18.040Z,15.11
2023-05-10T21:34:46.124Z,15.08
2023-05-10T21:37:14.113Z,15.06
2023-05-10T21:39:42.201Z,15.05
2023-05-10T21:42:11.736Z,15.04
2023-05-10T21:44:39.911Z,15.03
2023-05-10T21:47:08.065Z,15.03
2023-05-10T21:49:36.473Z,15.02
2023-05-10T21:52:04.594Z,14.99
2023-05-10T21:54:32.746Z,14.93
2023-05-10T21:57:00.852Z,14.91
2023-05-10T21:59:30.313Z,14.85
2023-05-10T22:01:58.492Z,14.80
2023-05-10T22:04:26.665Z,14.76
2023-05-10T22:06:54.786Z,14.79
2023-05-10T22:09:24.402Z,14.78
2023-05-10T22:11:52.649Z,14.77
2023-05-10T22:14:20.806Z,14.75
2023-05-10T22:16:50.510Z,14.72
2023-05-10T22:19:18.737Z,14.71
2023-05-10T22:21:46.758Z,14.67
2023-05-10T22:24:14.794Z,14.65
2023-05-10T22:26:42.877Z,14.55
2023-05-10T22:29:11.149Z,14.48
2023-05-10T22:31:39.597Z,14.36
2023-05-10T22:34:09.201Z,14.30
2023-05-10T22:36:37.404Z,14.28
2023-05-10T22:39:05.601Z,14.31
2023-05-10T22:41:34.384Z,14.35
2023-05-10T22:44:04.977Z,14.40
2023-05-10T22:46:33.241Z,14.46
2023-05-10T22:49:01.352Z,14.50
2023-05-10T22:51:30.904Z,14.50
2023-05-10T22:53:59.012Z,14.51
2023-05-10T22:56:27.269Z,14.52
2023-05-10T22:58:55.617Z,14.52
2023-05-10T23:01:23.796Z,14.50
2023-05-10T23:03:52.068Z,14.46
2023-05-10T23:06:20.248Z,14.50
2023-05-10T23:08:49.949Z,14.46
2023-05-10T23:11:18.037Z,14.43
2023-05-10T23:13:46.255Z,14.45
2023-05-10T23:16:14.360Z,14.37
2023-05-10T23:18:42.593Z,14.28
2023-05-10T23:21:10.835Z,14.23
2023-05-10T23:23:38.921Z,14.20
2023-05-10T23:26:08.942Z,14.14
2023-05-10T23:28:37.100Z,14.05
2023-05-10T23:31:05.218Z,13.94
2023-05-10T23:33:33.356Z,13.91
2023-05-10T23:36:01.524Z,13.95
2023-05-10T23:38:29.560Z,13.97
2023-05-10T23:40:57.583Z,13.90
2023-05-10T23:43:27.048Z,13.89
2023-05-10T23:45:55.407Z,13.76
2023-05-10T23:48:23.594Z,13.64
2023-05-10T23:50:51.886Z,13.53
2023-05-10T23:53:20.383Z,13.41
2023-05-10T23:55:48.497Z,13.39
2023-05-10T23:58:16.545Z,13.31
